Las Torres de Cotillas, Spain
Current Conditions -  °F | °C
As of 10:00 PM on Monday 26 Jan 2015 (Local Time) from LELC Reporting Station
Clear Clear  
Wind Chill: 46°   Ceiling: Unl
Heat Index: 46°   Visibility: 6mi
Dew Point: 43°   Wind: 2mph
Humidity: 87%   Direction: NA
Pressure: 30.33"   Gusts: NA
Location:  38.03°N, 1.24°W
Report Text: LELC 262100Z VRB02KT CAVOK 08/06 Q1027 NOSIG
Loading
Personal Weather Stations






























Interactive Weather Map New forecast layout! Learn more

10-Day Weather Forecast

Advertisements
Track Severe Weather on mobile